createdAt,value
2018-06-30T00:01:19.237Z,5.50
2018-06-30T00:04:22.206Z,5.40
2018-06-30T00:07:25.174Z,4.40
2018-06-30T00:10:29.668Z,4.83
2018-06-30T00:13:35.059Z,4.90
2018-06-30T00:16:38.385Z,4.53
2018-06-30T00:19:41.370Z,4.83
2018-06-30T00:22:44.452Z,3.97
2018-06-30T00:25:47.401Z,4.57
2018-06-30T00:28:51.397Z,4.90
2018-06-30T00:31:54.474Z,5.57
2018-06-30T00:34:57.484Z,5.10
2018-06-30T00:38:01.375Z,5.47
2018-06-30T00:41:04.637Z,4.93
2018-06-30T00:44:07.743Z,5.00
2018-06-30T00:47:12.928Z,6.17
2018-06-30T00:50:15.964Z,6.00
2018-06-30T00:53:18.908Z,6.60
2018-06-30T00:56:21.860Z,4.90
2018-06-30T00:59:24.863Z,4.10
2018-06-30T01:02:27.782Z,6.00
2018-06-30T01:05:30.777Z,5.57
2018-06-30T01:08:34.079Z,5.40
2018-06-30T01:11:37.218Z,5.10
2018-06-30T01:14:40.309Z,4.70
2018-06-30T01:17:43.375Z,4.20
2018-06-30T01:20:46.358Z,5.07
2018-06-30T01:23:49.301Z,5.17
2018-06-30T01:26:52.249Z,4.77
2018-06-30T01:29:55.211Z,4.97
2018-06-30T01:32:58.104Z,6.03
2018-06-30T01:36:01.065Z,6.00
2018-06-30T01:39:07.247Z,5.13
2018-06-30T01:42:10.513Z,4.90
2018-06-30T01:45:13.781Z,5.17
2018-06-30T01:48:16.848Z,5.10
2018-06-30T01:51:19.741Z,5.30
2018-06-30T01:54:22.672Z,5.90
2018-06-30T01:57:25.599Z,5.70
2018-06-30T02:00:28.554Z,5.50
2018-06-30T02:03:31.472Z,5.73
2018-06-30T02:06:34.838Z,4.90
2018-06-30T02:09:37.906Z,5.70
2018-06-30T02:12:41.022Z,5.57
2018-06-30T02:15:44.266Z,5.50
2018-06-30T02:18:47.183Z,5.43
2018-06-30T02:21:50.143Z,5.87
2018-06-30T02:24:53.098Z,5.80
2018-06-30T02:27:56.060Z,5.93
2018-06-30T02:30:59.009Z,5.73
2018-06-30T02:34:01.989Z,5.50
2018-06-30T02:37:05.523Z,5.27
2018-06-30T02:40:08.862Z,6.20
2018-06-30T02:43:11.957Z,5.70
2018-06-30T02:46:16.248Z,5.57
2018-06-30T02:49:19.163Z,5.97
2018-06-30T02:52:22.140Z,5.53
2018-06-30T02:55:25.261Z,5.73
2018-06-30T03:12:11.477Z,6.40
2018-06-30T03:15:14.754Z,6.60
2018-06-30T03:18:17.698Z,6.10
2018-06-30T03:21:20.677Z,6.27
2018-06-30T03:24:23.616Z,6.03
2018-06-30T03:27:26.589Z,7.27
2018-06-30T03:30:29.524Z,6.70
2018-06-30T03:33:32.630Z,6.70
2018-06-30T03:36:35.755Z,6.70
2018-06-30T03:39:38.874Z,6.13
2018-06-30T03:42:41.907Z,6.70
2018-06-30T03:45:44.930Z,6.70
2018-06-30T03:48:47.905Z,7.03
2018-06-30T03:51:50.860Z,7.20
2018-06-30T03:54:53.804Z,7.43
2018-06-30T03:57:56.780Z,7.07
2018-06-30T04:00:59.856Z,6.80
2018-06-30T04:04:02.991Z,7.00
2018-06-30T04:07:06.161Z,8.03
2018-06-30T04:10:09.274Z,8.10
2018-06-30T04:13:12.431Z,7.60
2018-06-30T04:16:15.576Z,6.93
2018-06-30T04:19:18.531Z,7.67
2018-06-30T04:22:21.477Z,6.93
2018-06-30T04:25:25.191Z,7.83
2018-06-30T04:28:28.177Z,7.83
2018-06-30T04:31:31.188Z,7.43
2018-06-30T04:34:34.917Z,7.70
2018-06-30T04:37:38.116Z,8.03
2018-06-30T04:40:41.165Z,8.57
2018-06-30T04:43:44.251Z,7.60
2018-06-30T04:46:47.225Z,8.93
2018-06-30T04:49:50.161Z,7.70
2018-06-30T04:52:53.140Z,7.50
2018-06-30T04:55:56.144Z,7.90
2018-06-30T04:58:59.170Z,8.20
2018-06-30T05:02:02.251Z,8.70
2018-06-30T05:05:05.594Z,10.80
2018-06-30T05:08:08.676Z,8.90
2018-06-30T05:11:11.736Z,12.90
2018-06-30T05:14:14.821Z,12.03
2018-06-30T05:17:17.786Z,11.80
2018-06-30T05:20:20.749Z,11.13
2018-06-30T05:23:23.670Z,12.87
2018-06-30T05:26:27.406Z,12.37
2018-06-30T05:29:30.364Z,12.13
2018-06-30T05:32:33.554Z,10.73
2018-06-30T05:35:39.327Z,11.13
2018-06-30T05:38:42.425Z,11.70
2018-06-30T05:41:45.706Z,13.63
2018-06-30T05:44:56.501Z,11.60
2018-06-30T05:48:11.664Z,11.80
2018-06-30T05:51:16.116Z,13.10
2018-06-30T05:54:20.171Z,13.00
2018-06-30T05:57:23.406Z,14.00
2018-06-30T06:00:26.466Z,14.33
2018-06-30T06:03:30.114Z,13.30
2018-06-30T06:06:34.392Z,12.97
2018-06-30T06:09:37.488Z,13.20
2018-06-30T06:12:41.707Z,14.20
2018-06-30T06:15:47.017Z,13.20
2018-06-30T06:18:50.239Z,11.13
2018-06-30T06:21:53.572Z,10.97
2018-06-30T06:24:57.177Z,10.83
2018-06-30T06:28:00.654Z,10.67
2018-06-30T06:31:04.543Z,11.20
2018-06-30T06:34:07.677Z,11.90
2018-06-30T06:37:10.881Z,11.20
2018-06-30T06:40:14.347Z,8.73
2018-06-30T06:43:17.529Z,10.23
2018-06-30T06:46:20.478Z,10.07
2018-06-30T06:49:23.415Z,9.20
2018-06-30T06:52:31.193Z,9.47
2018-06-30T06:55:34.337Z,8.73
2018-06-30T06:58:37.540Z,10.03
2018-06-30T07:01:43.242Z,10.20
2018-06-30T07:04:50.323Z,8.20
2018-06-30T07:07:53.760Z,7.27
2018-06-30T07:10:56.746Z,8.37
2018-06-30T07:14:00.314Z,7.30
2018-06-30T07:17:04.081Z,7.23
2018-06-30T07:20:07.385Z,7.50
2018-06-30T07:23:10.469Z,5.83
2018-06-30T07:26:14.412Z,6.17
2018-06-30T07:29:17.541Z,6.30
2018-06-30T07:32:20.488Z,6.03
2018-06-30T07:35:23.457Z,6.40
2018-06-30T07:38:26.476Z,5.83
2018-06-30T07:41:29.435Z,5.10
2018-06-30T07:44:32.594Z,5.20
2018-06-30T07:47:35.682Z,5.50
2018-06-30T07:50:39.496Z,4.90
2018-06-30T07:53:42.441Z,5.77
2018-06-30T07:56:45.375Z,4.57
2018-06-30T07:59:48.326Z,4.50
2018-06-30T08:02:51.414Z,4.13
2018-06-30T08:05:54.357Z,5.00
2018-06-30T08:08:57.325Z,4.30
2018-06-30T08:12:01.192Z,106.20
2018-06-30T08:15:05.873Z,6.20
2018-06-30T08:18:08.977Z,4.40
2018-06-30T08:21:12.180Z,4.10
2018-06-30T08:24:15.278Z,4.27
2018-06-30T08:27:18.236Z,4.23
2018-06-30T08:30:21.317Z,3.80
2018-06-30T08:33:24.965Z,4.17
2018-06-30T08:36:27.982Z,4.53
2018-06-30T08:39:31.053Z,3.93
2018-06-30T08:42:34.705Z,3.87
2018-06-30T08:45:37.809Z,3.43
2018-06-30T08:48:41.887Z,4.67
2018-06-30T08:51:45.101Z,3.77
2018-06-30T08:54:48.076Z,3.97
2018-06-30T08:57:52.466Z,4.00
2018-06-30T09:00:55.993Z,3.70
2018-06-30T09:03:59.071Z,3.40
2018-06-30T09:07:02.105Z,3.80
2018-06-30T09:10:05.789Z,3.53
2018-06-30T09:13:08.901Z,4.40
2018-06-30T09:16:12.052Z,3.03
2018-06-30T09:19:15.756Z,3.87
2018-06-30T09:22:18.897Z,3.37
2018-06-30T09:25:21.986Z,3.27
2018-06-30T09:28:25.220Z,3.43
2018-06-30T09:31:29.105Z,3.50
2018-06-30T09:34:32.536Z,3.57
2018-06-30T09:37:36.037Z,3.40
2018-06-30T09:40:39.728Z,2.87
2018-06-30T09:43:43.943Z,3.50
2018-06-30T09:46:47.123Z,2.60
2018-06-30T09:49:50.161Z,7.43
2018-06-30T09:52:53.306Z,3.27
2018-06-30T09:55:56.248Z,2.93
2018-06-30T09:58:59.267Z,309.93
2018-06-30T10:02:02.283Z,9.03
2018-06-30T10:05:05.298Z,3.07
2018-06-30T10:08:08.256Z,3.30
2018-06-30T10:11:11.306Z,2.73
2018-06-30T10:14:14.551Z,2.13
2018-06-30T10:17:17.593Z,2.43
2018-06-30T10:20:20.549Z,2.73
2018-06-30T10:23:24.168Z,2.13
2018-06-30T10:26:27.726Z,2.40
2018-06-30T10:29:30.653Z,2.13
2018-06-30T10:32:33.657Z,2.30
2018-06-30T10:35:36.842Z,1.87
2018-06-30T10:38:39.792Z,2.10
2018-06-30T10:41:42.763Z,2.20
2018-06-30T10:44:45.709Z,1.80
2018-06-30T10:47:48.693Z,1.60
2018-06-30T10:50:51.682Z,1.93
2018-06-30T10:53:54.659Z,1.50
2018-06-30T10:56:57.636Z,2.00
2018-06-30T11:00:01.124Z,2.50
2018-06-30T11:03:04.392Z,2.13
2018-06-30T11:06:07.437Z,1.47
2018-06-30T11:09:11.504Z,1.72
2018-06-30T11:12:14.503Z,1.50
2018-06-30T11:15:17.541Z,1.60
2018-06-30T11:18:20.540Z,1.43
2018-06-30T11:21:24.206Z,1.60
2018-06-30T11:24:27.817Z,1.30
2018-06-30T11:27:30.852Z,1.67
2018-06-30T11:30:34.410Z,2.57
2018-06-30T11:33:37.472Z,1.90
2018-06-30T11:36:40.504Z,2.00
2018-06-30T11:39:44.153Z,1.90
2018-06-30T11:42:47.824Z,1.23
2018-06-30T11:45:50.912Z,1.40
2018-06-30T11:48:53.851Z,1.60
2018-06-30T11:51:57.602Z,1.37
2018-06-30T11:55:01.565Z,1.40
2018-06-30T11:58:05.738Z,2.03
2018-06-30T12:01:09.909Z,1.63
2018-06-30T12:04:13.802Z,1.20
2018-06-30T12:07:17.685Z,1.30
2018-06-30T12:10:21.460Z,1.30
2018-06-30T12:16:42.265Z,1.57
2018-06-30T12:19:45.248Z,2.10
2018-06-30T12:22:48.251Z,1.40
2018-06-30T12:25:51.291Z,1.20
2018-06-30T12:28:54.234Z,1.20
2018-06-30T12:31:57.558Z,1.17
2018-06-30T12:35:00.489Z,1.30
2018-06-30T12:38:03.833Z,1.30
2018-06-30T12:41:06.859Z,1.50
2018-06-30T12:44:09.838Z,1.30
2018-06-30T12:47:12.985Z,1.10
2018-06-30T12:50:16.877Z,1.40
2018-06-30T12:53:19.876Z,1.17
2018-06-30T12:56:23.044Z,0.90
2018-06-30T12:59:26.253Z,1.03
2018-06-30T13:02:29.315Z,0.97
2018-06-30T13:05:32.500Z,0.93
2018-06-30T13:08:35.600Z,1.10
2018-06-30T13:11:38.675Z,0.90
2018-06-30T13:14:42.418Z,1.10
2018-06-30T13:17:45.479Z,1.40
2018-06-30T13:20:48.350Z,1.30
2018-06-30T13:23:51.307Z,1.43
2018-06-30T13:26:54.305Z,1.17
2018-06-30T13:29:58.437Z,1.10
2018-06-30T13:33:02.143Z,1.20
2018-06-30T13:36:06.014Z,1.37
2018-06-30T13:39:13.469Z,1.20
2018-06-30T13:42:17.352Z,1.03
2018-06-30T13:45:23.304Z,1.00
2018-06-30T13:48:26.433Z,1.20
2018-06-30T13:51:29.590Z,1.13
2018-06-30T13:54:33.747Z,1.13
2018-06-30T13:57:37.462Z,1.37
2018-06-30T14:00:40.785Z,1.13
2018-06-30T14:03:44.023Z,1.10
2018-06-30T14:06:47.255Z,1.13
2018-06-30T14:09:50.586Z,1.00
2018-06-30T14:12:54.223Z,1.10
2018-06-30T14:15:57.586Z,1.10
2018-06-30T14:19:00.651Z,1.30
2018-06-30T14:22:03.709Z,1.63
2018-06-30T14:25:07.619Z,1.30
2018-06-30T14:28:11.101Z,1.13
2018-06-30T14:31:14.597Z,1.03
2018-06-30T14:34:18.006Z,1.20
2018-06-30T14:37:21.262Z,0.97
2018-06-30T14:40:24.249Z,1.00
2018-06-30T14:43:27.372Z,0.90
2018-06-30T14:46:31.507Z,1.00
2018-06-30T14:49:35.202Z,1.43
2018-06-30T14:52:38.136Z,0.90
2018-06-30T14:55:42.593Z,1.20
2018-06-30T14:58:45.993Z,1.20
2018-06-30T15:01:49.588Z,1.07
2018-06-30T15:04:52.621Z,3.30
2018-06-30T15:07:56.314Z,15.83
2018-06-30T15:10:59.460Z,639.40
2018-06-30T15:14:05.288Z,57.87
2018-06-30T15:17:08.897Z,999.90
2018-06-30T15:20:12.083Z,339.43
2018-06-30T15:23:15.320Z,218.53
2018-06-30T15:26:18.475Z,387.63
2018-06-30T15:29:21.916Z,445.33
2018-06-30T15:32:25.169Z,270.20
2018-06-30T15:35:28.361Z,224.07
2018-06-30T15:38:31.529Z,566.33
2018-06-30T15:41:35.003Z,742.90
2018-06-30T15:44:38.623Z,203.50
2018-06-30T15:47:41.688Z,72.87
2018-06-30T15:50:44.833Z,642.53
2018-06-30T15:53:48.420Z,999.90
2018-06-30T15:56:51.757Z,403.07
2018-06-30T15:59:54.969Z,894.33
2018-06-30T16:02:58.432Z,861.30
2018-06-30T16:06:01.797Z,158.07
2018-06-30T16:09:09.618Z,11.60
2018-06-30T16:12:13.040Z,999.90
2018-06-30T16:15:16.325Z,999.90
2018-06-30T16:18:19.477Z,637.63
2018-06-30T16:21:25.135Z,697.60
2018-06-30T16:24:28.737Z,141.43
2018-06-30T16:27:32.147Z,34.07
2018-06-30T16:30:35.521Z,36.97
2018-06-30T16:33:38.846Z,33.70
2018-06-30T16:36:42.400Z,41.33
2018-06-30T16:39:45.559Z,8.07
2018-06-30T16:42:49.185Z,8.43
2018-06-30T16:45:52.748Z,20.20
2018-06-30T16:48:56.030Z,15.33
2018-06-30T16:51:58.986Z,10.90
2018-06-30T16:55:02.089Z,8.90
2018-06-30T16:58:05.539Z,1.60
2018-06-30T17:01:08.957Z,8.77
2018-06-30T17:04:12.400Z,2.97
2018-06-30T17:07:15.714Z,2.27
2018-06-30T17:10:18.721Z,1.60
2018-06-30T17:13:21.937Z,1.73
2018-06-30T17:16:25.740Z,1.40
2018-06-30T17:19:29.148Z,1.33
2018-06-30T17:22:32.403Z,1.23
2018-06-30T17:25:35.509Z,2.17
2018-06-30T17:28:38.564Z,1.10
2018-06-30T17:31:41.930Z,1.20
2018-06-30T17:34:45.622Z,2.40
2018-06-30T17:37:49.446Z,1.10
2018-06-30T17:40:52.771Z,1.27
2018-06-30T17:43:56.197Z,1.00
2018-06-30T17:46:59.625Z,0.80
2018-06-30T17:50:04.195Z,1.40
2018-06-30T17:53:07.251Z,1.90
2018-06-30T17:56:10.588Z,0.83
2018-06-30T17:59:14.050Z,0.90
2018-06-30T18:02:17.381Z,0.80
2018-06-30T18:05:20.437Z,0.70
2018-06-30T18:08:23.483Z,0.90
2018-06-30T18:11:26.777Z,1.73
2018-06-30T18:14:30.236Z,0.60
2018-06-30T18:17:33.691Z,1.13
2018-06-30T18:20:37.666Z,1.07
2018-06-30T18:23:40.734Z,1.23
2018-06-30T18:26:43.739Z,1.00
2018-06-30T18:29:47.201Z,0.60
2018-06-30T18:32:50.809Z,0.93
2018-06-30T18:35:54.626Z,1.27
2018-06-30T18:38:58.248Z,1.23
2018-06-30T18:42:03.650Z,0.70
2018-06-30T18:45:08.024Z,10.27
2018-06-30T18:48:12.195Z,2.50
2018-06-30T18:51:15.665Z,1.90
2018-06-30T18:54:18.908Z,0.83
2018-06-30T18:57:21.892Z,1.00
2018-06-30T19:00:26.334Z,2.03
2018-06-30T19:03:29.470Z,7.17
2018-06-30T19:06:33.141Z,1.53
2018-06-30T19:09:36.797Z,1.57
2018-06-30T19:12:40.270Z,0.80
2018-06-30T19:15:43.477Z,1.27
2018-06-30T19:18:46.875Z,1.00
2018-06-30T19:21:50.385Z,1.37
2018-06-30T19:24:53.731Z,2.20
2018-06-30T19:27:57.045Z,2.10
2018-06-30T19:31:00.608Z,2.60
2018-06-30T19:34:04.353Z,2.67
2018-06-30T19:37:08.347Z,2.40
2018-06-30T19:40:12.941Z,1.43
2018-06-30T19:43:16.481Z,1.30
2018-06-30T19:46:19.776Z,1.40
2018-06-30T19:49:22.753Z,2.07
2018-06-30T19:52:26.243Z,1.60
2018-06-30T19:55:29.947Z,1.37
2018-06-30T19:58:33.813Z,1.30
2018-06-30T20:01:36.954Z,1.77
2018-06-30T20:04:40.382Z,1.40
2018-06-30T20:07:49.487Z,1.10
2018-06-30T20:10:52.437Z,1.10
2018-06-30T20:13:55.606Z,0.90
2018-06-30T20:16:58.668Z,1.20
2018-06-30T20:20:01.847Z,0.77
2018-06-30T20:23:05.288Z,1.00
2018-06-30T20:26:09.120Z,0.90
2018-06-30T20:29:13.825Z,1.00
2018-06-30T20:32:17.434Z,0.90
2018-06-30T20:35:20.977Z,1.10
2018-06-30T20:38:26.873Z,1.20
2018-06-30T20:41:30.573Z,1.30
2018-06-30T20:44:34.068Z,1.00
2018-06-30T20:47:37.465Z,0.90
2018-06-30T20:50:42.042Z,1.10
2018-06-30T20:53:46.469Z,18.60
2018-06-30T20:56:50.533Z,1.77
2018-06-30T20:59:59.848Z,1.00
2018-06-30T21:03:03.669Z,1.00
2018-06-30T21:06:07.850Z,1.00
2018-06-30T21:09:12.674Z,1.30
2018-06-30T21:12:16.768Z,0.77
2018-06-30T21:15:20.791Z,1.00
2018-06-30T21:18:25.911Z,1.00
2018-06-30T21:21:37.491Z,1.30
2018-06-30T21:24:41.280Z,1.00
2018-06-30T21:27:45.082Z,0.90
2018-06-30T21:30:48.412Z,1.10
2018-06-30T21:33:52.163Z,0.87
2018-06-30T21:37:59.363Z,0.77
2018-06-30T21:41:02.676Z,0.90
2018-06-30T21:44:06.685Z,0.90
2018-06-30T21:47:11.599Z,1.13
2018-06-30T21:50:15.423Z,1.10
2018-06-30T21:53:19.937Z,1.00
2018-06-30T21:56:25.012Z,0.90
2018-06-30T21:59:35.226Z,0.97
2018-06-30T22:02:38.785Z,1.03
2018-06-30T22:05:43.965Z,1.20
2018-06-30T22:08:48.054Z,0.90
2018-06-30T22:11:54.282Z,1.00
2018-06-30T22:15:01.349Z,0.80
2018-06-30T22:18:07.378Z,1.03
2018-06-30T22:21:13.304Z,0.83
2018-06-30T22:24:17.854Z,0.93
2018-06-30T22:27:23.356Z,1.00
2018-06-30T22:30:32.490Z,0.93
2018-06-30T22:33:39.458Z,1.07
2018-06-30T22:36:44.773Z,1.30
2018-06-30T22:40:05.116Z,0.80
2018-06-30T22:43:08.469Z,1.10
2018-06-30T22:46:11.517Z,1.23
2018-06-30T22:49:15.194Z,1.00
2018-06-30T22:52:18.822Z,1.40
2018-06-30T22:55:22.933Z,1.27
2018-06-30T22:58:25.916Z,1.10
2018-06-30T23:01:28.848Z,1.27
2018-06-30T23:04:31.789Z,1.50
2018-06-30T23:07:35.783Z,1.30
2018-06-30T23:10:38.757Z,1.10
2018-06-30T23:13:41.971Z,1.30
2018-06-30T23:16:45.500Z,1.30
2018-06-30T23:19:48.460Z,1.50
2018-06-30T23:22:56.785Z,1.30
2018-06-30T23:25:59.702Z,1.30
2018-06-30T23:29:02.682Z,1.70
2018-06-30T23:32:06.476Z,1.30
2018-06-30T23:35:09.402Z,1.50
2018-06-30T23:38:12.402Z,1.60
2018-06-30T23:41:15.543Z,1.70
2018-06-30T23:44:18.473Z,1.10
2018-06-30T23:47:21.397Z,1.47
2018-06-30T23:50:24.607Z,1.50
2018-06-30T23:53:27.747Z,1.87
2018-06-30T23:56:30.715Z,1.57
2018-06-30T23:59:33.920Z,1.73
